< < Back
Terminal Aerodrome Forecast


Current Version              Previous Versions:   1  2  3  4  5  6  7  8  9  

Terminal Aerodrome Forecast

660
FTUS42 KGSP 270913 AAA
TAFHKY
TAF AMD
KHKY 270913Z 2709/2806 00000KT P6SM FEW050 SCT250
     FM271200 21003KT P6SM SCT040
     FM271600 22004KT P6SM BKN045 PROB30 2720/2801 4SM TSRA BKN040CB
     FM280100 25004KT P6SM -SHRA VCTS OVC040CB
     FM280400 00000KT P6SM -SHRA VCTS BKN040 OVC080CB=



Latest METAR

955
SAUS70 KWBC 271300 RRN
MTRHKY
METAR KHKY 271253Z 00000KT 10SM FEW036 FEW047 BKN065 24/19 A3015 RMK AO2
SLP186 T02440189


USA.gov is the U.S. government's official web portal to all federal, state and local government web resources and services.